createdAt,value
2019-04-28T00:00:53.218Z,14.63
2019-04-28T00:03:23.836Z,13.63
2019-04-28T00:05:54.146Z,13.03
2019-04-28T00:08:24.090Z,13.43
2019-04-28T00:10:54.112Z,12.93
2019-04-28T00:13:24.744Z,12.93
2019-04-28T00:15:55.042Z,18.00
2019-04-28T00:18:25.445Z,11.83
2019-04-28T00:21:23.547Z,11.73
2019-04-28T00:24:18.378Z,10.23
2019-04-28T00:26:59.481Z,16.20
2019-04-28T00:29:38.660Z,12.97
2019-04-28T00:32:02.087Z,12.03
2019-04-28T00:34:32.030Z,12.60
2019-04-28T00:37:17.244Z,7.90
2019-04-28T00:39:47.203Z,8.73
2019-04-28T00:42:17.876Z,7.97
2019-04-28T00:44:47.915Z,10.20
2019-04-28T00:47:17.940Z,9.87
2019-04-28T00:49:47.980Z,9.83
2019-04-28T00:52:19.512Z,16.87
2019-04-28T00:54:52.516Z,12.90
2019-04-28T00:57:23.135Z,8.40
2019-04-28T00:59:58.090Z,10.60
2019-04-28T01:02:50.985Z,8.93
2019-04-28T01:05:21.532Z,11.97
2019-04-28T01:07:51.671Z,9.13
2019-04-28T01:10:22.766Z,8.07
2019-04-28T01:12:52.934Z,12.47
2019-04-28T01:15:36.787Z,12.67
2019-04-28T01:18:41.207Z,8.67
2019-04-28T01:21:11.369Z,11.70
2019-04-28T01:23:41.843Z,10.27
2019-04-28T01:26:11.906Z,11.00
2019-04-28T01:28:42.272Z,13.97
2019-04-28T01:31:30.024Z,9.03
2019-04-28T01:34:20.407Z,8.97
2019-04-28T01:36:51.694Z,7.30
2019-04-28T01:39:22.924Z,4.57
2019-04-28T01:41:53.244Z,15.40
2019-04-28T01:44:23.432Z,8.37
2019-04-28T01:46:53.786Z,7.27
2019-04-28T01:49:23.708Z,18.40
2019-04-28T01:52:01.131Z,11.10
2019-04-28T01:54:31.402Z,19.30
2019-04-28T01:57:02.076Z,8.53
2019-04-28T01:59:32.124Z,7.30
2019-04-28T02:02:02.368Z,7.27
2019-04-28T02:04:32.699Z,6.80
2019-04-28T02:07:03.320Z,9.40
2019-04-28T02:09:33.441Z,8.00
2019-04-28T02:12:03.420Z,7.20
2019-04-28T02:14:33.964Z,8.73
2019-04-28T02:17:04.676Z,7.80
2019-04-28T02:19:34.708Z,6.83
2019-04-28T02:22:14.623Z,9.73
2019-04-28T02:24:44.876Z,10.27
2019-04-28T02:27:15.661Z,10.47
2019-04-28T02:29:45.647Z,12.90
2019-04-28T02:32:15.546Z,10.77
2019-04-28T02:34:45.755Z,10.63
2019-04-28T02:37:15.848Z,12.37
2019-04-28T02:39:45.892Z,6.77
2019-04-28T02:42:15.891Z,6.27
2019-04-28T02:44:46.096Z,14.30
2019-04-28T02:47:16.531Z,12.30
2019-04-28T02:49:55.449Z,6.90
2019-04-28T02:52:42.792Z,6.90
2019-04-28T02:55:14.989Z,11.93
2019-04-28T02:57:45.061Z,6.80
2019-04-28T03:00:15.795Z,9.37
2019-04-28T03:02:46.150Z,7.00
2019-04-28T03:05:16.544Z,14.23
2019-04-28T03:07:46.565Z,11.07
2019-04-28T03:10:17.086Z,7.87
2019-04-28T03:12:47.112Z,9.57
2019-04-28T03:15:20.213Z,3.70
2019-04-28T03:17:52.965Z,8.13
2019-04-28T03:20:22.368Z,5.33
2019-04-28T03:22:53.003Z,11.57
2019-04-28T03:25:36.849Z,15.20
2019-04-28T03:28:33.614Z,10.10
2019-04-28T03:31:48.236Z,5.07
2019-04-28T03:33:55.563Z,9.60
2019-04-28T03:36:24.479Z,11.90
2019-04-28T03:38:54.857Z,11.27
2019-04-28T03:41:25.553Z,12.43
2019-04-28T03:43:55.688Z,13.37
2019-04-28T03:46:30.461Z,13.10
2019-04-28T03:49:00.975Z,11.13
2019-04-28T03:51:31.207Z,10.20
2019-04-28T03:54:02.932Z,6.43
2019-04-28T03:56:33.433Z,11.53
2019-04-28T03:59:03.576Z,12.60
2019-04-28T04:01:34.159Z,9.83
2019-04-28T04:04:04.285Z,8.83
2019-04-28T04:06:34.505Z,6.07
2019-04-28T04:09:05.161Z,8.73
2019-04-28T04:11:44.246Z,6.37
2019-04-28T04:14:50.721Z,7.83
2019-04-28T04:17:30.959Z,10.53
2019-04-28T04:20:01.849Z,8.33
2019-04-28T04:22:32.529Z,16.07
2019-04-28T04:25:02.464Z,5.67
2019-04-28T04:27:32.528Z,10.93
2019-04-28T04:30:02.665Z,7.43
2019-04-28T04:32:33.955Z,8.67
2019-04-28T04:35:04.700Z,8.37
2019-04-28T04:37:34.718Z,16.87
2019-04-28T04:40:05.359Z,6.87
2019-04-28T04:42:35.409Z,10.07
2019-04-28T04:45:05.985Z,15.70
2019-04-28T04:47:35.987Z,10.40
2019-04-28T04:50:06.211Z,13.40
2019-04-28T04:52:36.260Z,14.27
2019-04-28T04:55:06.931Z,10.77
2019-04-28T04:57:37.050Z,8.90
2019-04-28T05:00:10.087Z,16.80
2019-04-28T05:02:52.833Z,16.00
2019-04-28T05:05:34.492Z,14.30
2019-04-28T05:08:04.720Z,15.73
2019-04-28T05:10:34.712Z,8.37
2019-04-28T05:13:04.732Z,10.63
2019-04-28T05:15:35.088Z,12.53
2019-04-28T05:18:05.956Z,13.63
2019-04-28T05:20:35.943Z,9.20
2019-04-28T05:23:12.216Z,10.80
2019-04-28T05:25:43.154Z,11.23
2019-04-28T05:28:13.436Z,10.47
2019-04-28T05:30:43.440Z,15.20
2019-04-28T05:33:30.396Z,11.40
2019-04-28T05:36:02.607Z,9.30
2019-04-28T05:38:31.052Z,15.53
2019-04-28T05:41:02.729Z,11.90
2019-04-28T05:43:32.896Z,15.73
2019-04-28T05:46:02.852Z,18.70
2019-04-28T05:48:44.867Z,13.77
2019-04-28T05:51:19.798Z,13.30
2019-04-28T05:54:07.622Z,10.30
2019-04-28T05:56:42.739Z,8.93
2019-04-28T05:59:31.689Z,13.10
2019-04-28T06:02:10.317Z,10.90
2019-04-28T06:04:41.778Z,6.60
2019-04-28T06:07:20.265Z,5.10
2019-04-28T06:09:52.064Z,15.70
2019-04-28T06:12:22.436Z,6.90
2019-04-28T06:14:53.024Z,11.20
2019-04-28T06:17:23.092Z,11.20
2019-04-28T06:19:53.132Z,17.97
2019-04-28T06:22:23.404Z,6.60
2019-04-28T06:24:53.984Z,6.47
2019-04-28T06:27:24.461Z,11.43
2019-04-28T06:29:54.588Z,14.10
2019-04-28T06:32:25.318Z,23.80
2019-04-28T06:34:55.920Z,14.93
2019-04-28T06:37:28.212Z,8.80
2019-04-28T06:39:58.409Z,20.00
2019-04-28T06:42:28.577Z,14.33
2019-04-28T06:44:58.612Z,10.17
2019-04-28T06:47:31.342Z,13.40
2019-04-28T06:50:01.388Z,6.20
2019-04-28T06:52:31.472Z,15.53
2019-04-28T06:55:02.062Z,8.70
2019-04-28T06:57:32.545Z,7.70
2019-04-28T07:00:03.249Z,11.10
2019-04-28T07:02:33.208Z,12.50
2019-04-28T07:05:03.341Z,7.87
2019-04-28T07:07:33.345Z,11.77
2019-04-28T07:10:04.196Z,19.43
2019-04-28T07:12:34.253Z,16.70
2019-04-28T07:15:07.601Z,13.93
2019-04-28T07:17:38.521Z,12.63
2019-04-28T07:20:28.568Z,16.03
2019-04-28T07:22:58.596Z,6.80
2019-04-28T07:25:29.654Z,11.00
2019-04-28T07:28:01.008Z,15.30
2019-04-28T07:30:31.731Z,7.53
2019-04-28T07:33:02.452Z,9.90
2019-04-28T07:35:33.587Z,7.00
2019-04-28T07:38:03.562Z,10.17
2019-04-28T07:40:33.632Z,4.10
2019-04-28T07:43:03.612Z,6.83
2019-04-28T07:45:33.674Z,9.77
2019-04-28T07:48:03.772Z,7.63
2019-04-28T07:50:34.389Z,6.70
2019-04-28T07:53:12.896Z,6.83
2019-04-28T07:55:43.482Z,4.53
2019-04-28T07:58:13.592Z,14.57
2019-04-28T08:00:44.509Z,8.47
2019-04-28T08:03:14.692Z,4.97
2019-04-28T08:05:44.720Z,4.57
2019-04-28T08:08:15.401Z,6.07
2019-04-28T08:10:45.843Z,10.40
2019-04-28T08:13:15.864Z,8.00
2019-04-28T08:15:45.976Z,6.43
2019-04-28T08:18:16.665Z,8.40
2019-04-28T08:20:46.680Z,9.60
2019-04-28T08:23:16.719Z,5.63
2019-04-28T08:25:47.787Z,11.40
2019-04-28T08:28:17.813Z,7.33
2019-04-28T08:30:47.817Z,5.80
2019-04-28T08:33:40.088Z,12.10
2019-04-28T08:36:10.244Z,4.20
2019-04-28T08:38:40.265Z,11.97
2019-04-28T08:41:10.418Z,7.67
2019-04-28T08:43:40.424Z,6.10
2019-04-28T08:46:11.264Z,6.13
2019-04-28T08:48:41.396Z,5.30
2019-04-28T08:51:11.393Z,6.13
2019-04-28T08:53:41.769Z,3.87
2019-04-28T08:56:11.856Z,10.30
2019-04-28T08:58:42.292Z,14.33
2019-04-28T09:01:12.392Z,8.17
2019-04-28T09:03:42.701Z,9.63
2019-04-28T09:06:12.728Z,9.70
2019-04-28T09:08:42.736Z,11.73
2019-04-28T09:11:12.880Z,14.83
2019-04-28T09:13:43.989Z,10.00
2019-04-28T09:16:14.273Z,20.17
2019-04-28T09:18:44.811Z,10.20
2019-04-28T09:21:15.212Z,13.57
2019-04-28T09:23:45.276Z,11.03
2019-04-28T09:26:15.486Z,14.30
2019-04-28T09:28:45.537Z,21.53
2019-04-28T09:31:15.624Z,17.60
2019-04-28T09:33:47.169Z,20.33
2019-04-28T09:36:17.951Z,18.57
2019-04-28T09:38:47.891Z,16.47
2019-04-28T09:41:17.877Z,16.20
2019-04-28T09:43:55.263Z,21.70
2019-04-28T09:46:34.105Z,18.90
2019-04-28T09:49:04.464Z,30.17
2019-04-28T09:51:34.506Z,20.30
2019-04-28T09:54:05.383Z,21.40
2019-04-28T09:56:36.936Z,17.93
2019-04-28T09:59:07.048Z,35.07
2019-04-28T10:01:38.496Z,23.47
2019-04-28T10:04:08.528Z,26.17
2019-04-28T10:06:38.695Z,11.60
2019-04-28T10:09:10.173Z,20.07
2019-04-28T10:11:40.331Z,20.30
2019-04-28T10:14:10.628Z,11.37
2019-04-28T10:16:41.137Z,11.57
2019-04-28T10:19:11.501Z,15.23
2019-04-28T10:21:41.916Z,18.50
2019-04-28T10:24:12.576Z,21.93
2019-04-28T10:26:42.856Z,28.90
2019-04-28T10:29:12.953Z,13.30
2019-04-28T10:31:43.134Z,27.30
2019-04-28T10:34:13.189Z,11.80
2019-04-28T10:36:44.684Z,19.27
2019-04-28T10:39:28.476Z,14.13
2019-04-28T10:41:58.607Z,15.70
2019-04-28T10:44:30.045Z,16.33
2019-04-28T10:47:00.230Z,9.87
2019-04-28T10:49:30.632Z,20.27
2019-04-28T10:52:00.892Z,13.30
2019-04-28T10:54:31.156Z,20.27
2019-04-28T10:57:01.309Z,15.10
2019-04-28T10:59:31.449Z,17.90
2019-04-28T11:02:01.628Z,12.50
2019-04-28T11:05:08.153Z,10.37
2019-04-28T11:07:32.307Z,21.40
2019-04-28T11:10:08.486Z,15.83
2019-04-28T11:12:38.697Z,14.77
2019-04-28T11:15:13.053Z,20.90
2019-04-28T11:17:43.145Z,22.77
2019-04-28T11:20:14.242Z,17.50
2019-04-28T11:22:44.332Z,35.80
2019-04-28T11:25:14.508Z,15.03
2019-04-28T11:27:45.865Z,17.47
2019-04-28T11:30:17.061Z,20.57
2019-04-28T11:33:04.813Z,11.90
2019-04-28T11:35:34.945Z,15.23
2019-04-28T11:38:04.945Z,19.13
2019-04-28T11:40:34.949Z,27.30
2019-04-28T11:43:05.149Z,17.00
2019-04-28T11:45:35.741Z,14.97
2019-04-28T11:48:05.892Z,18.83
2019-04-28T11:50:36.016Z,17.53
2019-04-28T11:53:06.296Z,19.53
2019-04-28T11:55:36.383Z,17.73
2019-04-28T11:58:06.919Z,20.27
2019-04-28T12:00:36.964Z,21.13
2019-04-28T12:03:07.053Z,25.83
2019-04-28T12:05:43.549Z,15.00
2019-04-28T12:08:13.954Z,25.93
2019-04-28T12:10:49.264Z,13.27
2019-04-28T12:13:38.155Z,24.13
2019-04-28T12:16:25.685Z,16.47
2019-04-28T12:19:08.392Z,20.97
2019-04-28T12:21:38.458Z,22.20
2019-04-28T12:24:08.537Z,24.73
2019-04-28T12:26:38.832Z,14.57
2019-04-28T12:29:08.847Z,23.33
2019-04-28T12:31:38.871Z,15.83
2019-04-28T12:34:08.873Z,21.90
2019-04-28T12:36:38.909Z,25.07
2019-04-28T12:39:09.958Z,19.03
2019-04-28T12:41:39.937Z,21.40
2019-04-28T12:44:10.069Z,16.53
2019-04-28T12:46:40.147Z,18.07
2019-04-28T12:49:17.110Z,24.73
2019-04-28T12:51:47.517Z,24.30
2019-04-28T12:54:19.288Z,24.47
2019-04-28T12:56:49.444Z,17.93
2019-04-28T12:59:24.462Z,20.53
2019-04-28T13:02:02.100Z,24.37
2019-04-28T13:04:44.696Z,27.67
2019-04-28T13:07:14.877Z,21.97
2019-04-28T13:09:44.844Z,13.80
2019-04-28T13:12:14.853Z,20.43
2019-04-28T13:14:44.933Z,23.23
2019-04-28T13:17:15.196Z,25.67
2019-04-28T13:19:45.349Z,21.57
2019-04-28T13:22:15.682Z,19.00
2019-04-28T13:24:45.771Z,16.43
2019-04-28T13:27:16.329Z,21.20
2019-04-28T13:29:46.404Z,18.50
2019-04-28T13:32:16.459Z,22.57
2019-04-28T13:34:46.551Z,23.87
2019-04-28T13:37:16.735Z,28.07
2019-04-28T13:39:55.430Z,19.10
2019-04-28T13:42:29.612Z,17.27
2019-04-28T13:45:09.245Z,20.20
2019-04-28T13:47:40.177Z,20.20
2019-04-28T13:50:19.764Z,19.27
2019-04-28T13:52:49.772Z,20.03
2019-04-28T13:55:37.505Z,30.47
2019-04-28T13:58:07.832Z,40.20
2019-04-28T14:00:53.003Z,28.53
2019-04-28T14:03:33.728Z,27.90
2019-04-28T14:06:09.900Z,31.37
2019-04-28T14:08:40.024Z,26.30
2019-04-28T14:11:10.028Z,34.50
2019-04-28T14:13:40.015Z,42.33
2019-04-28T14:16:10.197Z,33.43
2019-04-28T14:18:40.182Z,20.43
2019-04-28T14:21:10.727Z,37.33
2019-04-28T14:23:40.999Z,44.60
2019-04-28T14:26:10.956Z,31.73
2019-04-28T14:28:41.147Z,46.30
2019-04-28T14:31:11.076Z,38.47
2019-04-28T14:33:41.012Z,36.50
2019-04-28T14:36:11.113Z,36.10
2019-04-28T14:38:43.071Z,30.00
2019-04-28T14:41:13.160Z,28.20
2019-04-28T14:43:43.804Z,16.80
2019-04-28T14:46:14.015Z,29.23
2019-04-28T14:48:44.564Z,26.30
2019-04-28T14:51:14.620Z,31.20
2019-04-28T14:53:44.913Z,28.97
2019-04-28T14:56:15.428Z,28.03
2019-04-28T14:58:45.813Z,22.03
2019-04-28T15:01:27.009Z,26.33
2019-04-28T15:03:58.825Z,34.97
2019-04-28T15:06:34.355Z,29.70
2019-04-28T15:09:21.983Z,30.67
2019-04-28T15:11:55.637Z,39.33
2019-04-28T15:14:25.837Z,32.70
2019-04-28T15:16:55.804Z,33.40
2019-04-28T15:19:25.883Z,22.30
2019-04-28T15:21:56.383Z,40.37
2019-04-28T15:24:26.403Z,24.40
2019-04-28T15:26:56.457Z,27.97
2019-04-28T15:29:26.930Z,27.03
2019-04-28T15:31:56.955Z,36.23
2019-04-28T15:34:26.975Z,34.37
2019-04-28T15:37:09.157Z,30.53
2019-04-28T15:39:29.132Z,31.37
2019-04-28T15:41:59.248Z,34.37
2019-04-28T15:44:29.287Z,38.63
2019-04-28T15:46:59.840Z,25.33
2019-04-28T15:49:29.857Z,38.60
2019-04-28T15:51:59.901Z,26.80
2019-04-28T15:54:30.176Z,30.50
2019-04-28T15:57:00.172Z,35.20
2019-04-28T15:59:30.171Z,26.30
2019-04-28T16:02:00.231Z,27.60
2019-04-28T16:04:31.168Z,20.60
2019-04-28T16:07:01.212Z,31.17
2019-04-28T16:09:31.195Z,39.40
2019-04-28T16:12:01.777Z,29.97
2019-04-28T16:14:32.349Z,35.90
2019-04-28T16:17:02.437Z,30.57
2019-04-28T16:19:32.416Z,38.43
2019-04-28T16:22:02.572Z,24.20
2019-04-28T16:24:33.056Z,36.43
2019-04-28T16:27:03.463Z,41.10
2019-04-28T16:29:33.759Z,42.63
2019-04-28T16:32:03.917Z,31.10
2019-04-28T16:34:34.065Z,31.27
2019-04-28T16:37:04.001Z,32.03
2019-04-28T16:39:34.032Z,28.07
2019-04-28T16:42:05.404Z,39.17
2019-04-28T16:44:36.240Z,32.60
2019-04-28T16:47:06.625Z,41.80
2019-04-28T16:49:37.360Z,42.60
2019-04-28T16:52:07.492Z,35.87
2019-04-28T16:54:37.521Z,43.70
2019-04-28T16:57:34.501Z,44.63
2019-04-28T17:00:16.304Z,33.00
2019-04-28T17:02:48.977Z,31.27
2019-04-28T17:05:19.273Z,52.47
2019-04-28T17:07:53.254Z,43.23
2019-04-28T17:10:21.032Z,31.57
2019-04-28T17:12:51.041Z,48.57
2019-04-28T17:15:21.064Z,37.50
2019-04-28T17:17:51.120Z,44.70
2019-04-28T17:20:21.305Z,40.23
2019-04-28T17:22:51.489Z,40.30
2019-04-28T17:25:22.076Z,26.43
2019-04-28T17:27:52.626Z,34.77
2019-04-28T17:30:22.722Z,37.80
2019-04-28T17:32:52.797Z,33.57
2019-04-28T17:35:23.192Z,27.13
2019-04-28T17:38:05.835Z,30.83
2019-04-28T17:40:25.349Z,24.40
2019-04-28T17:42:55.760Z,34.43
2019-04-28T17:45:26.281Z,43.20
2019-04-28T17:47:58.172Z,48.03
2019-04-28T17:50:29.259Z,44.60
2019-04-28T17:52:59.617Z,40.67
2019-04-28T17:55:30.866Z,43.57
2019-04-28T17:58:01.100Z,32.57
2019-04-28T18:00:43.852Z,42.97
2019-04-28T18:03:33.783Z,63.57
2019-04-28T18:06:29.162Z,47.67
2019-04-28T18:08:59.245Z,39.87
2019-04-28T18:11:29.448Z,43.13
2019-04-28T18:13:59.608Z,33.30
2019-04-28T18:16:44.184Z,35.33
2019-04-28T18:19:14.876Z,44.07
2019-04-28T18:21:45.246Z,33.20
2019-04-28T18:24:15.324Z,45.77
2019-04-28T18:26:46.116Z,34.97
2019-04-28T18:29:17.367Z,33.47
2019-04-28T18:32:06.446Z,32.43
2019-04-28T18:35:01.408Z,36.87
2019-04-28T18:37:50.996Z,41.47
2019-04-28T18:40:58.471Z,38.73
2019-04-28T18:43:48.167Z,26.13
2019-04-28T18:46:22.632Z,34.83
2019-04-28T18:48:53.340Z,33.70
2019-04-28T18:51:23.320Z,31.33
2019-04-28T18:53:54.737Z,37.03
2019-04-28T18:56:24.743Z,40.17
2019-04-28T18:58:54.852Z,40.80
2019-04-28T19:01:44.281Z,37.40
2019-04-28T19:04:14.357Z,29.17
2019-04-28T19:06:45.018Z,37.00
2019-04-28T19:09:39.927Z,38.17
2019-04-28T19:12:17.499Z,43.87
2019-04-28T19:14:58.604Z,29.90
2019-04-28T19:17:40.689Z,34.60
2019-04-28T19:20:13.573Z,32.90
2019-04-28T19:22:47.312Z,70.60
2019-04-28T19:25:17.463Z,34.77
2019-04-28T19:27:47.555Z,32.67
2019-04-28T19:30:18.085Z,46.90
2019-04-28T19:32:49.310Z,27.23
2019-04-28T19:35:23.130Z,44.23
2019-04-28T19:37:53.271Z,28.67
2019-04-28T19:40:23.308Z,46.80
2019-04-28T19:42:53.392Z,28.10
2019-04-28T19:45:23.472Z,24.60
2019-04-28T19:47:53.777Z,29.20
2019-04-28T19:50:23.811Z,35.97
2019-04-28T19:52:56.417Z,42.00
2019-04-28T19:55:30.931Z,39.47
2019-04-28T19:58:10.639Z,43.07
2019-04-28T20:00:53.497Z,33.90
2019-04-28T20:03:24.056Z,40.13
2019-04-28T20:05:54.470Z,35.20
2019-04-28T20:08:24.673Z,41.83
2019-04-28T20:10:55.004Z,40.83
2019-04-28T20:13:25.510Z,39.40
2019-04-28T20:15:55.496Z,44.37
2019-04-28T20:18:25.529Z,41.27
2019-04-28T20:20:55.905Z,44.30
2019-04-28T20:23:25.996Z,37.43
2019-04-28T20:25:56.905Z,31.07
2019-04-28T20:28:28.104Z,27.27
2019-04-28T20:30:58.464Z,36.03
2019-04-28T20:33:29.223Z,37.07
2019-04-28T20:36:03.967Z,30.93
2019-04-28T20:38:34.345Z,45.70
2019-04-28T20:41:23.623Z,37.23
2019-04-28T20:43:54.963Z,38.43
2019-04-28T20:46:25.101Z,39.40
2019-04-28T20:48:55.345Z,34.20
2019-04-28T20:51:25.350Z,38.80
2019-04-28T20:53:55.436Z,31.33
2019-04-28T20:56:25.449Z,35.40
2019-04-28T20:58:55.559Z,57.30
2019-04-28T21:01:25.520Z,43.33
2019-04-28T21:03:55.517Z,27.30
2019-04-28T21:06:25.620Z,37.93
2019-04-28T21:08:55.628Z,26.37
2019-04-28T21:11:25.736Z,45.47
2019-04-28T21:13:55.827Z,27.33
2019-04-28T21:16:25.966Z,32.97
2019-04-28T21:18:56.358Z,31.23
2019-04-28T21:21:26.416Z,40.00
2019-04-28T21:23:56.447Z,38.37
2019-04-28T21:26:26.476Z,32.20
2019-04-28T21:28:56.557Z,25.40
2019-04-28T21:31:27.004Z,39.33
2019-04-28T21:33:57.204Z,28.13
2019-04-28T21:36:27.366Z,29.47
2019-04-28T21:38:57.411Z,23.13
2019-04-28T21:41:27.364Z,25.10
2019-04-28T21:44:28.534Z,23.07
2019-04-28T21:47:03.184Z,41.33
2019-04-28T21:49:35.652Z,41.00
2019-04-28T21:52:06.004Z,28.07
2019-04-28T21:54:36.000Z,44.30
2019-04-28T21:57:06.243Z,27.43
2019-04-28T21:59:36.403Z,35.60
2019-04-28T22:02:06.488Z,35.07
2019-04-28T22:04:36.524Z,22.50
2019-04-28T22:07:06.724Z,26.13
2019-04-28T22:09:37.019Z,43.97
2019-04-28T22:12:07.278Z,32.63
2019-04-28T22:14:37.690Z,34.33
2019-04-28T22:17:08.184Z,28.40
2019-04-28T22:19:38.198Z,61.20
2019-04-28T22:22:08.209Z,26.90
2019-04-28T22:24:43.368Z,25.83
2019-04-28T22:27:15.371Z,27.70
2019-04-28T22:29:45.464Z,34.07
2019-04-28T22:32:15.522Z,31.43
2019-04-28T22:34:45.456Z,30.90
2019-04-28T22:37:15.652Z,29.93
2019-04-28T22:39:47.149Z,34.53
2019-04-28T22:42:17.220Z,28.70
2019-04-28T22:44:47.260Z,36.87
2019-04-28T22:47:17.277Z,24.10
2019-04-28T22:49:47.308Z,28.57
2019-04-28T22:52:17.755Z,33.77
2019-04-28T22:55:06.864Z,33.57
2019-04-28T22:57:58.674Z,23.40
2019-04-28T23:00:51.092Z,33.27
2019-04-28T23:03:39.966Z,23.73
2019-04-28T23:06:10.666Z,29.87
2019-04-28T23:08:40.714Z,19.93
2019-04-28T23:11:10.830Z,26.20
2019-04-28T23:13:41.173Z,22.60
2019-04-28T23:16:11.412Z,38.47
2019-04-28T23:18:41.389Z,23.87
2019-04-28T23:21:22.861Z,23.40
2019-04-28T23:23:53.208Z,21.50
2019-04-28T23:26:23.272Z,19.77
2019-04-28T23:28:53.555Z,30.00
2019-04-28T23:31:23.668Z,37.00
2019-04-28T23:33:53.664Z,23.37
2019-04-28T23:36:23.924Z,26.90
2019-04-28T23:38:53.936Z,36.50
2019-04-28T23:41:38.360Z,34.87
2019-04-28T23:44:08.392Z,31.30
2019-04-28T23:46:58.036Z,34.80
2019-04-28T23:49:29.819Z,27.90
2019-04-28T23:52:18.828Z,30.40
2019-04-28T23:54:50.885Z,35.07
2019-04-28T23:57:20.959Z,32.50
2019-04-28T23:59:51.113Z,26.00
